sensor_id;sensor_type;location;lat;lon;timestamp;P1;durP1;ratioP1;P2;durP2;ratioP2
64498;SDS011;51087;55.718;21.122;2023-11-19T00:00:09;14.30;;;6.07;;
64498;SDS011;51087;55.718;21.122;2023-11-19T00:02:40;10.88;;;5.43;;
64498;SDS011;51087;55.718;21.122;2023-11-19T00:05:05;13.38;;;6.15;;
64498;SDS011;51087;55.718;21.122;2023-11-19T00:07:35;12.63;;;6.03;;
64498;SDS011;51087;55.718;21.122;2023-11-19T00:10:00;13.10;;;6.20;;
64498;SDS011;51087;55.718;21.122;2023-11-19T00:12:35;11.43;;;5.95;;
64498;SDS011;51087;55.718;21.122;2023-11-19T00:15:01;13.27;;;5.93;;
64498;SDS011;51087;55.718;21.122;2023-11-19T00:17:26;17.17;;;6.40;;
64498;SDS011;51087;55.718;21.122;2023-11-19T00:19:52;14.20;;;6.05;;
64498;SDS011;51087;55.718;21.122;2023-11-19T00:22:17;14.77;;;6.30;;
64498;SDS011;51087;55.718;21.122;2023-11-19T00:24:42;15.43;;;6.53;;
64498;SDS011;51087;55.718;21.122;2023-11-19T00:27:07;14.70;;;5.30;;
64498;SDS011;51087;55.718;21.122;2023-11-19T00:29:33;13.32;;;6.00;;
64498;SDS011;51087;55.718;21.122;2023-11-19T00:31:58;10.40;;;5.55;;
64498;SDS011;51087;55.718;21.122;2023-11-19T00:34:23;10.60;;;5.68;;
64498;SDS011;51087;55.718;21.122;2023-11-19T00:36:49;10.48;;;5.15;;
64498;SDS011;51087;55.718;21.122;2023-11-19T00:39:14;13.68;;;5.20;;
64498;SDS011;51087;55.718;21.122;2023-11-19T00:41:40;10.70;;;5.07;;
64498;SDS011;51087;55.718;21.122;2023-11-19T00:44:05;8.73;;;4.85;;
64498;SDS011;51087;55.718;21.122;2023-11-19T00:46:30;12.13;;;5.88;;
64498;SDS011;51087;55.718;21.122;2023-11-19T00:48:57;12.10;;;5.32;;
64498;SDS011;51087;55.718;21.122;2023-11-19T00:51:24;9.88;;;5.15;;
64498;SDS011;51087;55.718;21.122;2023-11-19T00:53:49;9.30;;;4.72;;
64498;SDS011;51087;55.718;21.122;2023-11-19T00:56:15;12.45;;;5.95;;
64498;SDS011;51087;55.718;21.122;2023-11-19T00:58:42;11.48;;;5.72;;
64498;SDS011;51087;55.718;21.122;2023-11-19T01:01:07;13.15;;;5.82;;
64498;SDS011;51087;55.718;21.122;2023-11-19T01:03:33;11.13;;;4.80;;
64498;SDS011;51087;55.718;21.122;2023-11-19T01:05:58;10.63;;;5.45;;
64498;SDS011;51087;55.718;21.122;2023-11-19T01:08:25;10.93;;;5.40;;
64498;SDS011;51087;55.718;21.122;2023-11-19T01:10:51;12.82;;;5.47;;
64498;SDS011;51087;55.718;21.122;2023-11-19T01:13:16;11.55;;;5.47;;
64498;SDS011;51087;55.718;21.122;2023-11-19T01:15:41;12.45;;;5.55;;
64498;SDS011;51087;55.718;21.122;2023-11-19T01:18:07;10.52;;;5.22;;
64498;SDS011;51087;55.718;21.122;2023-11-19T01:20:34;10.68;;;5.22;;
64498;SDS011;51087;55.718;21.122;2023-11-19T01:22:59;10.40;;;5.07;;
64498;SDS011;51087;55.718;21.122;2023-11-19T01:25:25;10.90;;;5.47;;
64498;SDS011;51087;55.718;21.122;2023-11-19T01:27:50;10.05;;;5.28;;
64498;SDS011;51087;55.718;21.122;2023-11-19T01:30:15;10.95;;;5.50;;
64498;SDS011;51087;55.718;21.122;2023-11-19T01:32:43;9.95;;;5.15;;
64498;SDS011;51087;55.718;21.122;2023-11-19T01:35:08;11.77;;;4.28;;
64498;SDS011;51087;55.718;21.122;2023-11-19T01:37:33;13.30;;;6.05;;
64498;SDS011;51087;55.718;21.122;2023-11-19T01:40:00;10.05;;;5.10;;
64498;SDS011;51087;55.718;21.122;2023-11-19T01:42:25;17.20;;;5.68;;
64498;SDS011;51087;55.718;21.122;2023-11-19T01:44:57;9.65;;;5.40;;
64498;SDS011;51087;55.718;21.122;2023-11-19T01:47:23;10.20;;;4.95;;
64498;SDS011;51087;55.718;21.122;2023-11-19T01:49:49;14.38;;;5.20;;
64498;SDS011;51087;55.718;21.122;2023-11-19T01:52:15;10.18;;;5.13;;
64498;SDS011;51087;55.718;21.122;2023-11-19T01:54:40;10.18;;;4.85;;
64498;SDS011;51087;55.718;21.122;2023-11-19T01:57:05;10.32;;;5.00;;
64498;SDS011;51087;55.718;21.122;2023-11-19T01:59:32;9.63;;;4.88;;
64498;SDS011;51087;55.718;21.122;2023-11-19T02:01:57;13.68;;;5.45;;
64498;SDS011;51087;55.718;21.122;2023-11-19T02:04:23;13.50;;;5.32;;
64498;SDS011;51087;55.718;21.122;2023-11-19T02:06:48;13.23;;;5.80;;
64498;SDS011;51087;55.718;21.122;2023-11-19T02:09:13;12.35;;;5.40;;
64498;SDS011;51087;55.718;21.122;2023-11-19T02:11:39;12.25;;;5.72;;
64498;SDS011;51087;55.718;21.122;2023-11-19T02:14:05;10.30;;;5.38;;
64498;SDS011;51087;55.718;21.122;2023-11-19T02:16:30;9.77;;;5.30;;
64498;SDS011;51087;55.718;21.122;2023-11-19T02:18:55;10.77;;;5.22;;
64498;SDS011;51087;55.718;21.122;2023-11-19T02:21:21;9.55;;;5.50;;
64498;SDS011;51087;55.718;21.122;2023-11-19T02:23:46;11.32;;;5.28;;
64498;SDS011;51087;55.718;21.122;2023-11-19T02:28:39;9.25;;;4.95;;
64498;SDS011;51087;55.718;21.122;2023-11-19T02:31:05;11.48;;;5.70;;
64498;SDS011;51087;55.718;21.122;2023-11-19T02:33:31;11.80;;;5.60;;
64498;SDS011;51087;55.718;21.122;2023-11-19T02:35:56;13.65;;;6.43;;
64498;SDS011;51087;55.718;21.122;2023-11-19T02:38:21;10.18;;;5.82;;
64498;SDS011;51087;55.718;21.122;2023-11-19T02:40:47;11.65;;;5.85;;
64498;SDS011;51087;55.718;21.122;2023-11-19T02:43:13;11.75;;;5.88;;
64498;SDS011;51087;55.718;21.122;2023-11-19T02:45:38;10.68;;;5.72;;
64498;SDS011;51087;55.718;21.122;2023-11-19T02:48:03;11.15;;;6.03;;
64498;SDS011;51087;55.718;21.122;2023-11-19T02:50:31;14.02;;;5.57;;
64498;SDS011;51087;55.718;21.122;2023-11-19T02:52:56;12.18;;;5.28;;
64498;SDS011;51087;55.718;21.122;2023-11-19T02:55:22;11.45;;;5.70;;
64498;SDS011;51087;55.718;21.122;2023-11-19T02:57:48;13.65;;;6.10;;
64498;SDS011;51087;55.718;21.122;2023-11-19T03:00:18;16.10;;;5.88;;
64498;SDS011;51087;55.718;21.122;2023-11-19T03:02:48;10.48;;;5.18;;
64498;SDS011;51087;55.718;21.122;2023-11-19T03:05:19;10.70;;;5.00;;
64498;SDS011;51087;55.718;21.122;2023-11-19T03:07:45;11.55;;;6.18;;
64498;SDS011;51087;55.718;21.122;2023-11-19T03:10:10;10.77;;;5.97;;
64498;SDS011;51087;55.718;21.122;2023-11-19T03:12:39;10.95;;;5.30;;
64498;SDS011;51087;55.718;21.122;2023-11-19T03:15:05;14.57;;;6.80;;
64498;SDS011;51087;55.718;21.122;2023-11-19T03:17:30;15.48;;;6.35;;
64498;SDS011;51087;55.718;21.122;2023-11-19T03:19:56;14.20;;;6.07;;
64498;SDS011;51087;55.718;21.122;2023-11-19T03:22:21;10.68;;;5.90;;
64498;SDS011;51087;55.718;21.122;2023-11-19T03:24:46;11.32;;;5.63;;
64498;SDS011;51087;55.718;21.122;2023-11-19T03:27:12;11.57;;;5.50;;
64498;SDS011;51087;55.718;21.122;2023-11-19T03:29:37;10.30;;;5.78;;
64498;SDS011;51087;55.718;21.122;2023-11-19T03:32:03;12.90;;;6.53;;
64498;SDS011;51087;55.718;21.122;2023-11-19T03:34:29;14.60;;;6.20;;
64498;SDS011;51087;55.718;21.122;2023-11-19T03:36:54;14.95;;;6.25;;
64498;SDS011;51087;55.718;21.122;2023-11-19T03:39:20;13.48;;;6.78;;
64498;SDS011;51087;55.718;21.122;2023-11-19T03:41:46;13.48;;;6.45;;
64498;SDS011;51087;55.718;21.122;2023-11-19T03:44:13;12.20;;;5.95;;
64498;SDS011;51087;55.718;21.122;2023-11-19T03:46:38;10.23;;;5.63;;
64498;SDS011;51087;55.718;21.122;2023-11-19T03:49:03;11.88;;;6.25;;
64498;SDS011;51087;55.718;21.122;2023-11-19T03:51:29;14.10;;;6.72;;
64498;SDS011;51087;55.718;21.122;2023-11-19T03:53:54;11.07;;;5.97;;
64498;SDS011;51087;55.718;21.122;2023-11-19T03:56:20;15.00;;;6.50;;
64498;SDS011;51087;55.718;21.122;2023-11-19T03:58:46;11.05;;;5.97;;
64498;SDS011;51087;55.718;21.122;2023-11-19T04:01:11;11.15;;;5.85;;
64498;SDS011;51087;55.718;21.122;2023-11-19T04:03:40;14.02;;;6.22;;
64498;SDS011;51087;55.718;21.122;2023-11-19T04:06:05;10.27;;;5.80;;
64498;SDS011;51087;55.718;21.122;2023-11-19T04:08:30;13.73;;;6.57;;
64498;SDS011;51087;55.718;21.122;2023-11-19T04:10:56;12.30;;;6.68;;
64498;SDS011;51087;55.718;21.122;2023-11-19T04:13:21;12.90;;;6.22;;
64498;SDS011;51087;55.718;21.122;2023-11-19T04:15:47;15.68;;;6.78;;
64498;SDS011;51087;55.718;21.122;2023-11-19T04:18:12;14.32;;;6.15;;
64498;SDS011;51087;55.718;21.122;2023-11-19T04:20:37;14.05;;;6.47;;
64498;SDS011;51087;55.718;21.122;2023-11-19T04:23:03;13.20;;;6.45;;
64498;SDS011;51087;55.718;21.122;2023-11-19T04:25:28;13.50;;;6.40;;
64498;SDS011;51087;55.718;21.122;2023-11-19T04:27:53;11.48;;;6.07;;
64498;SDS011;51087;55.718;21.122;2023-11-19T04:30:19;13.80;;;6.82;;
64498;SDS011;51087;55.718;21.122;2023-11-19T04:32:44;12.32;;;6.30;;
64498;SDS011;51087;55.718;21.122;2023-11-19T04:35:09;14.52;;;7.20;;
64498;SDS011;51087;55.718;21.122;2023-11-19T04:37:35;11.98;;;6.57;;
64498;SDS011;51087;55.718;21.122;2023-11-19T04:40:01;12.52;;;6.78;;
64498;SDS011;51087;55.718;21.122;2023-11-19T04:42:26;13.77;;;7.53;;
64498;SDS011;51087;55.718;21.122;2023-11-19T04:44:51;17.02;;;6.97;;
64498;SDS011;51087;55.718;21.122;2023-11-19T04:47:17;17.08;;;7.18;;
64498;SDS011;51087;55.718;21.122;2023-11-19T04:49:42;13.35;;;6.97;;
64498;SDS011;51087;55.718;21.122;2023-11-19T04:52:08;15.07;;;7.40;;
64498;SDS011;51087;55.718;21.122;2023-11-19T04:54:33;13.25;;;6.72;;
64498;SDS011;51087;55.718;21.122;2023-11-19T04:56:58;15.63;;;8.07;;
64498;SDS011;51087;55.718;21.122;2023-11-19T04:59:24;14.48;;;7.05;;
64498;SDS011;51087;55.718;21.122;2023-11-19T05:01:49;13.52;;;7.00;;
64498;SDS011;51087;55.718;21.122;2023-11-19T05:04:15;18.55;;;6.90;;
64498;SDS011;51087;55.718;21.122;2023-11-19T05:06:41;12.05;;;7.30;;
64498;SDS011;51087;55.718;21.122;2023-11-19T05:09:06;14.40;;;7.03;;
64498;SDS011;51087;55.718;21.122;2023-11-19T05:11:35;13.80;;;6.57;;
64498;SDS011;51087;55.718;21.122;2023-11-19T05:14:01;13.23;;;6.93;;
64498;SDS011;51087;55.718;21.122;2023-11-19T05:16:28;11.32;;;6.15;;
64498;SDS011;51087;55.718;21.122;2023-11-19T05:18:54;13.45;;;6.63;;
64498;SDS011;51087;55.718;21.122;2023-11-19T05:21:19;14.45;;;6.95;;
64498;SDS011;51087;55.718;21.122;2023-11-19T05:23:44;14.82;;;6.82;;
64498;SDS011;51087;55.718;21.122;2023-11-19T05:26:16;13.57;;;6.13;;
64498;SDS011;51087;55.718;21.122;2023-11-19T05:28:41;12.05;;;5.70;;
64498;SDS011;51087;55.718;21.122;2023-11-19T05:31:07;11.85;;;5.40;;
64498;SDS011;51087;55.718;21.122;2023-11-19T05:33:32;12.10;;;5.65;;
64498;SDS011;51087;55.718;21.122;2023-11-19T05:36:00;11.88;;;5.75;;
64498;SDS011;51087;55.718;21.122;2023-11-19T05:38:28;11.82;;;6.00;;
64498;SDS011;51087;55.718;21.122;2023-11-19T05:40:54;11.80;;;5.80;;
64498;SDS011;51087;55.718;21.122;2023-11-19T05:43:19;14.35;;;6.57;;
64498;SDS011;51087;55.718;21.122;2023-11-19T05:45:44;14.95;;;6.45;;
64498;SDS011;51087;55.718;21.122;2023-11-19T05:48:09;13.95;;;6.30;;
64498;SDS011;51087;55.718;21.122;2023-11-19T05:50:35;14.20;;;7.18;;
64498;SDS011;51087;55.718;21.122;2023-11-19T05:53:00;12.07;;;6.30;;
64498;SDS011;51087;55.718;21.122;2023-11-19T05:55:26;13.85;;;6.40;;
64498;SDS011;51087;55.718;21.122;2023-11-19T05:57:53;14.95;;;6.97;;
64498;SDS011;51087;55.718;21.122;2023-11-19T06:00:18;14.40;;;6.53;;
64498;SDS011;51087;55.718;21.122;2023-11-19T06:02:43;15.50;;;7.03;;
64498;SDS011;51087;55.718;21.122;2023-11-19T06:05:08;12.32;;;6.60;;
64498;SDS011;51087;55.718;21.122;2023-11-19T06:07:34;15.25;;;6.35;;
64498;SDS011;51087;55.718;21.122;2023-11-19T06:10:01;16.50;;;7.00;;
64498;SDS011;51087;55.718;21.122;2023-11-19T06:12:27;14.20;;;6.72;;
64498;SDS011;51087;55.718;21.122;2023-11-19T06:14:53;15.77;;;6.82;;
64498;SDS011;51087;55.718;21.122;2023-11-19T06:17:18;17.90;;;6.70;;
64498;SDS011;51087;55.718;21.122;2023-11-19T06:19:43;14.15;;;6.32;;
64498;SDS011;51087;55.718;21.122;2023-11-19T06:22:10;13.63;;;6.32;;
64498;SDS011;51087;55.718;21.122;2023-11-19T06:24:35;14.63;;;6.40;;
64498;SDS011;51087;55.718;21.122;2023-11-19T06:27:00;13.50;;;6.25;;
64498;SDS011;51087;55.718;21.122;2023-11-19T06:29:26;13.13;;;6.22;;
64498;SDS011;51087;55.718;21.122;2023-11-19T06:31:51;13.30;;;6.65;;
64498;SDS011;51087;55.718;21.122;2023-11-19T06:34:16;12.82;;;6.15;;
64498;SDS011;51087;55.718;21.122;2023-11-19T06:36:42;13.73;;;6.72;;
64498;SDS011;51087;55.718;21.122;2023-11-19T06:39:10;14.73;;;6.85;;
64498;SDS011;51087;55.718;21.122;2023-11-19T06:41:38;14.38;;;7.00;;
64498;SDS011;51087;55.718;21.122;2023-11-19T06:44:04;14.60;;;6.72;;
64498;SDS011;51087;55.718;21.122;2023-11-19T06:46:30;15.27;;;7.55;;
64498;SDS011;51087;55.718;21.122;2023-11-19T06:48:55;15.25;;;7.82;;
64498;SDS011;51087;55.718;21.122;2023-11-19T06:51:20;14.73;;;7.57;;
64498;SDS011;51087;55.718;21.122;2023-11-19T06:53:46;15.60;;;8.13;;
64498;SDS011;51087;55.718;21.122;2023-11-19T06:56:20;13.48;;;7.15;;
64498;SDS011;51087;55.718;21.122;2023-11-19T06:58:46;16.52;;;7.82;;
64498;SDS011;51087;55.718;21.122;2023-11-19T07:01:13;15.95;;;8.13;;
64498;SDS011;51087;55.718;21.122;2023-11-19T07:03:38;17.00;;;7.18;;
64498;SDS011;51087;55.718;21.122;2023-11-19T07:06:03;18.15;;;8.35;;
64498;SDS011;51087;55.718;21.122;2023-11-19T07:08:30;15.65;;;8.63;;
64498;SDS011;51087;55.718;21.122;2023-11-19T07:10:56;17.35;;;8.57;;
64498;SDS011;51087;55.718;21.122;2023-11-19T07:13:23;15.18;;;8.07;;
64498;SDS011;51087;55.718;21.122;2023-11-19T07:15:48;18.20;;;8.88;;
64498;SDS011;51087;55.718;21.122;2023-11-19T07:18:14;21.40;;;10.45;;
64498;SDS011;51087;55.718;21.122;2023-11-19T07:20:39;18.48;;;7.35;;
64498;SDS011;51087;55.718;21.122;2023-11-19T07:23:05;16.10;;;8.05;;
64498;SDS011;51087;55.718;21.122;2023-11-19T07:25:31;15.40;;;7.95;;
64498;SDS011;51087;55.718;21.122;2023-11-19T07:27:56;18.77;;;9.02;;
64498;SDS011;51087;55.718;21.122;2023-11-19T07:30:22;26.70;;;11.65;;
64498;SDS011;51087;55.718;21.122;2023-11-19T07:32:47;23.90;;;10.32;;
64498;SDS011;51087;55.718;21.122;2023-11-19T07:35:13;20.25;;;9.82;;
64498;SDS011;51087;55.718;21.122;2023-11-19T07:37:38;18.20;;;8.45;;
64498;SDS011;51087;55.718;21.122;2023-11-19T07:40:04;18.73;;;8.23;;
64498;SDS011;51087;55.718;21.122;2023-11-19T07:42:29;20.17;;;9.18;;
64498;SDS011;51087;55.718;21.122;2023-11-19T07:44:56;13.93;;;6.95;;
64498;SDS011;51087;55.718;21.122;2023-11-19T07:47:22;16.63;;;7.57;;
64498;SDS011;51087;55.718;21.122;2023-11-19T07:49:48;16.77;;;8.10;;
64498;SDS011;51087;55.718;21.122;2023-11-19T07:52:13;14.75;;;7.18;;
64498;SDS011;51087;55.718;21.122;2023-11-19T07:54:39;15.73;;;7.40;;
64498;SDS011;51087;55.718;21.122;2023-11-19T07:57:04;18.27;;;8.30;;
64498;SDS011;51087;55.718;21.122;2023-11-19T07:59:29;19.20;;;7.93;;
64498;SDS011;51087;55.718;21.122;2023-11-19T08:01:54;16.13;;;8.23;;
64498;SDS011;51087;55.718;21.122;2023-11-19T08:04:20;15.77;;;7.97;;
64498;SDS011;51087;55.718;21.122;2023-11-19T08:06:45;18.42;;;9.18;;
64498;SDS011;51087;55.718;21.122;2023-11-19T08:09:11;18.23;;;7.97;;
64498;SDS011;51087;55.718;21.122;2023-11-19T08:11:38;21.15;;;9.85;;
64498;SDS011;51087;55.718;21.122;2023-11-19T08:14:04;23.30;;;9.73;;
64498;SDS011;51087;55.718;21.122;2023-11-19T08:16:29;21.08;;;8.90;;
64498;SDS011;51087;55.718;21.122;2023-11-19T08:18:55;17.42;;;7.82;;
64498;SDS011;51087;55.718;21.122;2023-11-19T08:21:20;14.35;;;7.57;;
64498;SDS011;51087;55.718;21.122;2023-11-19T08:23:47;16.70;;;7.60;;
64498;SDS011;51087;55.718;21.122;2023-11-19T08:26:14;21.20;;;8.73;;
64498;SDS011;51087;55.718;21.122;2023-11-19T08:28:39;16.80;;;8.27;;
64498;SDS011;51087;55.718;21.122;2023-11-19T08:31:04;19.23;;;8.50;;
64498;SDS011;51087;55.718;21.122;2023-11-19T08:33:30;16.58;;;8.07;;
64498;SDS011;51087;55.718;21.122;2023-11-19T08:35:55;17.63;;;8.88;;
64498;SDS011;51087;55.718;21.122;2023-11-19T08:38:21;17.05;;;8.20;;
64498;SDS011;51087;55.718;21.122;2023-11-19T08:40:46;19.58;;;7.95;;
64498;SDS011;51087;55.718;21.122;2023-11-19T08:43:12;16.73;;;7.30;;
64498;SDS011;51087;55.718;21.122;2023-11-19T08:45:37;14.45;;;5.93;;
64498;SDS011;51087;55.718;21.122;2023-11-19T08:48:02;12.75;;;6.13;;
64498;SDS011;51087;55.718;21.122;2023-11-19T08:50:27;15.98;;;6.15;;
64498;SDS011;51087;55.718;21.122;2023-11-19T08:52:53;13.07;;;7.05;;
64498;SDS011;51087;55.718;21.122;2023-11-19T08:55:18;13.73;;;6.63;;
64498;SDS011;51087;55.718;21.122;2023-11-19T08:57:43;11.25;;;5.72;;
64498;SDS011;51087;55.718;21.122;2023-11-19T09:00:09;13.07;;;6.18;;
64498;SDS011;51087;55.718;21.122;2023-11-19T09:02:37;13.77;;;5.75;;
64498;SDS011;51087;55.718;21.122;2023-11-19T09:05:03;11.10;;;5.38;;
64498;SDS011;51087;55.718;21.122;2023-11-19T09:07:28;11.32;;;4.93;;
64498;SDS011;51087;55.718;21.122;2023-11-19T09:09:53;8.95;;;4.88;;
64498;SDS011;51087;55.718;21.122;2023-11-19T09:12:18;11.15;;;5.38;;
64498;SDS011;51087;55.718;21.122;2023-11-19T09:14:44;7.68;;;4.57;;
64498;SDS011;51087;55.718;21.122;2023-11-19T09:17:10;9.13;;;5.00;;
64498;SDS011;51087;55.718;21.122;2023-11-19T09:19:36;8.52;;;4.57;;
64498;SDS011;51087;55.718;21.122;2023-11-19T09:22:01;8.02;;;4.82;;
64498;SDS011;51087;55.718;21.122;2023-11-19T09:24:26;9.73;;;4.35;;
64498;SDS011;51087;55.718;21.122;2023-11-19T09:26:51;8.25;;;4.35;;
64498;SDS011;51087;55.718;21.122;2023-11-19T09:29:17;6.93;;;3.65;;
64498;SDS011;51087;55.718;21.122;2023-11-19T09:31:42;10.10;;;5.00;;
64498;SDS011;51087;55.718;21.122;2023-11-19T09:34:08;10.07;;;4.43;;
64498;SDS011;51087;55.718;21.122;2023-11-19T09:36:33;11.77;;;5.85;;
64498;SDS011;51087;55.718;21.122;2023-11-19T09:38:58;13.27;;;6.38;;
64498;SDS011;51087;55.718;21.122;2023-11-19T09:41:25;16.27;;;6.97;;
64498;SDS011;51087;55.718;21.122;2023-11-19T09:43:53;15.85;;;7.32;;
64498;SDS011;51087;55.718;21.122;2023-11-19T09:46:18;15.00;;;6.93;;
64498;SDS011;51087;55.718;21.122;2023-11-19T09:48:44;16.77;;;7.45;;
64498;SDS011;51087;55.718;21.122;2023-11-19T09:51:10;16.25;;;6.90;;
64498;SDS011;51087;55.718;21.122;2023-11-19T09:53:36;16.40;;;6.18;;
64498;SDS011;51087;55.718;21.122;2023-11-19T09:56:02;12.80;;;6.57;;
64498;SDS011;51087;55.718;21.122;2023-11-19T09:58:28;14.48;;;7.15;;
64498;SDS011;51087;55.718;21.122;2023-11-19T10:00:54;16.25;;;7.20;;
64498;SDS011;51087;55.718;21.122;2023-11-19T10:03:19;12.90;;;6.65;;
64498;SDS011;51087;55.718;21.122;2023-11-19T10:05:44;14.10;;;6.43;;
64498;SDS011;51087;55.718;21.122;2023-11-19T10:08:09;13.68;;;6.28;;
64498;SDS011;51087;55.718;21.122;2023-11-19T10:10:36;11.63;;;6.03;;
64498;SDS011;51087;55.718;21.122;2023-11-19T10:13:01;13.98;;;6.57;;
64498;SDS011;51087;55.718;21.122;2023-11-19T10:15:26;14.30;;;6.90;;
64498;SDS011;51087;55.718;21.122;2023-11-19T10:17:54;15.80;;;6.65;;
64498;SDS011;51087;55.718;21.122;2023-11-19T10:20:20;13.75;;;6.55;;
64498;SDS011;51087;55.718;21.122;2023-11-19T10:22:45;15.25;;;6.60;;
64498;SDS011;51087;55.718;21.122;2023-11-19T10:27:48;13.55;;;6.13;;
64498;SDS011;51087;55.718;21.122;2023-11-19T10:30:18;12.10;;;6.13;;
64498;SDS011;51087;55.718;21.122;2023-11-19T10:32:44;11.57;;;5.85;;
64498;SDS011;51087;55.718;21.122;2023-11-19T10:35:09;12.50;;;6.05;;
64498;SDS011;51087;55.718;21.122;2023-11-19T10:37:37;15.00;;;5.97;;
64498;SDS011;51087;55.718;21.122;2023-11-19T10:40:02;12.73;;;5.75;;
64498;SDS011;51087;55.718;21.122;2023-11-19T10:42:30;14.35;;;5.95;;
64498;SDS011;51087;55.718;21.122;2023-11-19T10:44:55;13.85;;;6.50;;
64498;SDS011;51087;55.718;21.122;2023-11-19T10:47:21;14.57;;;6.65;;
64498;SDS011;51087;55.718;21.122;2023-11-19T10:49:47;15.05;;;6.85;;
64498;SDS011;51087;55.718;21.122;2023-11-19T10:52:14;11.30;;;5.55;;
64498;SDS011;51087;55.718;21.122;2023-11-19T10:54:42;11.77;;;5.97;;
64498;SDS011;51087;55.718;21.122;2023-11-19T10:57:09;14.05;;;6.22;;
64498;SDS011;51087;55.718;21.122;2023-11-19T10:59:35;11.77;;;6.28;;
64498;SDS011;51087;55.718;21.122;2023-11-19T11:02:03;12.57;;;5.60;;
64498;SDS011;51087;55.718;21.122;2023-11-19T11:04:30;13.40;;;5.97;;
64498;SDS011;51087;55.718;21.122;2023-11-19T11:06:58;11.00;;;5.13;;
64498;SDS011;51087;55.718;21.122;2023-11-19T11:09:26;13.18;;;5.68;;
64498;SDS011;51087;55.718;21.122;2023-11-19T11:11:51;13.90;;;5.72;;
64498;SDS011;51087;55.718;21.122;2023-11-19T11:14:17;12.70;;;6.00;;
64498;SDS011;51087;55.718;21.122;2023-11-19T11:16:43;9.88;;;5.40;;
64498;SDS011;51087;55.718;21.122;2023-11-19T11:19:12;12.57;;;5.63;;
64498;SDS011;51087;55.718;21.122;2023-11-19T11:21:38;14.43;;;5.38;;
64498;SDS011;51087;55.718;21.122;2023-11-19T11:39:28;11.65;;;5.18;;
64498;SDS011;51087;55.718;21.122;2023-11-19T11:49:48;10.30;;;4.95;;
64498;SDS011;51087;55.718;21.122;2023-11-19T11:52:14;12.15;;;6.10;;
64498;SDS011;51087;55.718;21.122;2023-11-19T11:54:41;11.00;;;5.47;;
64498;SDS011;51087;55.718;21.122;2023-11-19T11:59:42;11.77;;;5.90;;
64498;SDS011;51087;55.718;21.122;2023-11-19T12:02:08;14.95;;;8.23;;
64498;SDS011;51087;55.718;21.122;2023-11-19T12:04:36;12.05;;;5.70;;
64498;SDS011;51087;55.718;21.122;2023-11-19T12:07:05;12.73;;;6.35;;
64498;SDS011;51087;55.718;21.122;2023-11-19T12:09:31;11.57;;;6.18;;
64498;SDS011;51087;55.718;21.122;2023-11-19T12:19:50;13.23;;;6.05;;
64498;SDS011;51087;55.718;21.122;2023-11-19T12:22:15;22.50;;;6.82;;
64498;SDS011;51087;55.718;21.122;2023-11-19T12:24:41;10.95;;;6.93;;
64498;SDS011;51087;55.718;21.122;2023-11-19T12:27:06;10.82;;;5.90;;
64498;SDS011;51087;55.718;21.122;2023-11-19T12:29:41;10.93;;;5.65;;
64498;SDS011;51087;55.718;21.122;2023-11-19T12:32:07;11.23;;;5.75;;
64498;SDS011;51087;55.718;21.122;2023-11-19T12:34:32;13.55;;;7.03;;
64498;SDS011;51087;55.718;21.122;2023-11-19T12:36:58;15.30;;;7.10;;
64498;SDS011;51087;55.718;21.122;2023-11-19T12:39:25;14.70;;;7.25;;
64498;SDS011;51087;55.718;21.122;2023-11-19T12:41:55;13.73;;;6.72;;
64498;SDS011;51087;55.718;21.122;2023-11-19T12:44:21;19.17;;;7.68;;
64498;SDS011;51087;55.718;21.122;2023-11-19T12:46:58;27.17;;;12.43;;
64498;SDS011;51087;55.718;21.122;2023-11-19T12:49:24;15.88;;;7.60;;
64498;SDS011;51087;55.718;21.122;2023-11-19T12:51:49;16.05;;;8.13;;
64498;SDS011;51087;55.718;21.122;2023-11-19T12:54:15;16.52;;;9.02;;
64498;SDS011;51087;55.718;21.122;2023-11-19T12:56:40;14.82;;;7.82;;
64498;SDS011;51087;55.718;21.122;2023-11-19T12:59:11;9.98;;;4.40;;
64498;SDS011;51087;55.718;21.122;2023-11-19T13:01:59;23.50;;;10.43;;
64498;SDS011;51087;55.718;21.122;2023-11-19T13:04:29;29.08;;;12.45;;
64498;SDS011;51087;55.718;21.122;2023-11-19T13:06:56;32.13;;;12.73;;
64498;SDS011;51087;55.718;21.122;2023-11-19T13:09:25;14.27;;;6.72;;
64498;SDS011;51087;55.718;21.122;2023-11-19T13:11:51;17.23;;;6.93;;
64498;SDS011;51087;55.718;21.122;2023-11-19T13:14:17;14.73;;;6.30;;
64498;SDS011;51087;55.718;21.122;2023-11-19T13:16:42;16.58;;;6.68;;
64498;SDS011;51087;55.718;21.122;2023-11-19T13:19:08;15.15;;;6.88;;
64498;SDS011;51087;55.718;21.122;2023-11-19T13:21:36;12.63;;;6.47;;
64498;SDS011;51087;55.718;21.122;2023-11-19T13:24:03;14.90;;;5.85;;
64498;SDS011;51087;55.718;21.122;2023-11-19T13:26:28;14.95;;;7.28;;
64498;SDS011;51087;55.718;21.122;2023-11-19T13:28:53;13.73;;;6.78;;
64498;SDS011;51087;55.718;21.122;2023-11-19T13:31:19;12.57;;;6.70;;
64498;SDS011;51087;55.718;21.122;2023-11-19T13:33:44;14.90;;;6.85;;
64498;SDS011;51087;55.718;21.122;2023-11-19T13:36:09;13.23;;;6.28;;
64498;SDS011;51087;55.718;21.122;2023-11-19T13:38:35;12.25;;;6.13;;
64498;SDS011;51087;55.718;21.122;2023-11-19T13:41:01;10.15;;;5.60;;
64498;SDS011;51087;55.718;21.122;2023-11-19T13:43:26;11.30;;;5.95;;
64498;SDS011;51087;55.718;21.122;2023-11-19T13:45:53;12.40;;;6.05;;
64498;SDS011;51087;55.718;21.122;2023-11-19T13:48:18;11.07;;;6.03;;
64498;SDS011;51087;55.718;21.122;2023-11-19T13:50:43;11.52;;;6.03;;
64498;SDS011;51087;55.718;21.122;2023-11-19T13:53:09;10.93;;;5.28;;
64498;SDS011;51087;55.718;21.122;2023-11-19T13:55:34;13.45;;;7.93;;
64498;SDS011;51087;55.718;21.122;2023-11-19T13:57:59;17.15;;;7.38;;
64498;SDS011;51087;55.718;21.122;2023-11-19T14:00:25;15.60;;;7.30;;
64498;SDS011;51087;55.718;21.122;2023-11-19T14:02:50;14.25;;;6.88;;
64498;SDS011;51087;55.718;21.122;2023-11-19T14:05:15;9.82;;;5.47;;
64498;SDS011;51087;55.718;21.122;2023-11-19T14:07:44;9.77;;;5.32;;
64498;SDS011;51087;55.718;21.122;2023-11-19T14:10:11;10.80;;;5.57;;
64498;SDS011;51087;55.718;21.122;2023-11-19T14:12:39;15.38;;;6.00;;
64498;SDS011;51087;55.718;21.122;2023-11-19T14:15:05;12.63;;;6.20;;
64498;SDS011;51087;55.718;21.122;2023-11-19T14:17:34;14.60;;;6.22;;
64498;SDS011;51087;55.718;21.122;2023-11-19T14:20:00;12.07;;;5.72;;
64498;SDS011;51087;55.718;21.122;2023-11-19T14:22:25;15.70;;;6.65;;
64498;SDS011;51087;55.718;21.122;2023-11-19T14:24:50;14.77;;;7.15;;
64498;SDS011;51087;55.718;21.122;2023-11-19T14:27:16;13.70;;;6.82;;
64498;SDS011;51087;55.718;21.122;2023-11-19T14:29:44;14.05;;;6.60;;
64498;SDS011;51087;55.718;21.122;2023-11-19T14:32:12;15.73;;;8.38;;
64498;SDS011;51087;55.718;21.122;2023-11-19T14:34:37;14.63;;;7.28;;
64498;SDS011;51087;55.718;21.122;2023-11-19T14:37:03;14.90;;;8.02;;
64498;SDS011;51087;55.718;21.122;2023-11-19T14:39:28;14.55;;;7.25;;
64498;SDS011;51087;55.718;21.122;2023-11-19T14:41:57;17.48;;;6.65;;
64498;SDS011;51087;55.718;21.122;2023-11-19T14:44:25;13.85;;;7.07;;
64498;SDS011;51087;55.718;21.122;2023-11-19T14:46:51;23.08;;;10.30;;
64498;SDS011;51087;55.718;21.122;2023-11-19T14:49:16;18.10;;;7.97;;
64498;SDS011;51087;55.718;21.122;2023-11-19T14:51:41;12.65;;;6.60;;